createdAt,value
2017-05-27T00:01:06.797Z,68.70
2017-05-27T00:03:35.267Z,69.20
2017-05-27T00:06:03.677Z,70.10
2017-05-27T00:08:32.153Z,70.00
2017-05-27T00:10:59.839Z,70.00
2017-05-27T00:13:28.292Z,70.50
2017-05-27T00:15:56.705Z,70.30
2017-05-27T00:18:25.144Z,70.80
2017-05-27T00:20:53.511Z,70.30
2017-05-27T00:23:21.928Z,70.40
2017-05-27T00:25:50.350Z,70.80
2017-05-27T00:28:18.785Z,70.40
2017-05-27T00:30:47.351Z,70.20
2017-05-27T00:33:15.752Z,69.80
2017-05-27T00:35:44.232Z,70.00
2017-05-27T00:38:12.720Z,70.50
2017-05-27T00:40:41.148Z,70.40
2017-05-27T00:43:09.647Z,70.70
2017-05-27T00:45:38.084Z,70.40
2017-05-27T00:48:06.528Z,70.80
2017-05-27T00:50:34.907Z,70.50
2017-05-27T00:53:03.296Z,71.10
2017-05-27T00:55:31.696Z,71.40
2017-05-27T00:58:00.083Z,71.20
2017-05-27T01:00:28.491Z,71.40
2017-05-27T01:02:56.933Z,71.50
2017-05-27T01:05:25.404Z,71.50
2017-05-27T01:07:53.857Z,72.90
2017-05-27T01:10:22.244Z,72.60
2017-05-27T01:12:50.639Z,72.60
2017-05-27T01:15:19.036Z,72.90
2017-05-27T01:17:47.433Z,72.80
2017-05-27T01:20:15.981Z,73.40
2017-05-27T01:22:44.332Z,73.30
2017-05-27T01:25:12.712Z,73.50
2017-05-27T01:27:41.114Z,73.10
2017-05-27T01:30:09.503Z,72.50
2017-05-27T01:32:37.884Z,72.90
2017-05-27T01:35:06.280Z,73.20
2017-05-27T01:37:34.744Z,73.70
2017-05-27T01:40:03.335Z,74.00
2017-05-27T01:42:31.738Z,73.80
2017-05-27T01:45:00.132Z,73.80
2017-05-27T01:47:28.717Z,74.10
2017-05-27T01:49:57.095Z,74.30
2017-05-27T01:52:24.720Z,74.20
2017-05-27T01:54:53.125Z,74.90
2017-05-27T01:57:21.679Z,75.20
2017-05-27T01:59:50.086Z,75.00
2017-05-27T02:02:18.449Z,75.30
2017-05-27T02:04:47.007Z,74.90
2017-05-27T02:07:15.474Z,74.50
2017-05-27T02:09:43.860Z,74.70
2017-05-27T02:12:12.215Z,75.10
2017-05-27T02:14:40.580Z,75.40
2017-05-27T02:17:08.935Z,75.50
2017-05-27T02:19:37.328Z,75.50
2017-05-27T02:22:05.719Z,75.60
2017-05-27T02:24:34.115Z,75.80
2017-05-27T02:27:02.490Z,75.40
2017-05-27T02:29:30.855Z,75.70
2017-05-27T02:31:59.251Z,76.10
2017-05-27T02:34:27.633Z,76.30
2017-05-27T02:36:55.994Z,76.50
2017-05-27T02:39:24.385Z,77.60
2017-05-27T02:41:52.847Z,78.00
2017-05-27T02:44:21.215Z,77.90
2017-05-27T02:46:49.607Z,77.90
2017-05-27T02:49:17.993Z,78.60
2017-05-27T02:51:46.368Z,78.80
2017-05-27T02:54:14.782Z,78.70
2017-05-27T02:56:43.170Z,78.60
2017-05-27T02:59:11.574Z,78.30
2017-05-27T03:01:39.962Z,78.00
2017-05-27T03:04:08.331Z,77.80
2017-05-27T03:06:36.718Z,77.80
2017-05-27T03:09:05.108Z,77.50
2017-05-27T03:11:33.491Z,78.70
2017-05-27T03:14:01.936Z,78.00
2017-05-27T03:16:30.424Z,77.90
2017-05-27T03:18:58.800Z,78.30
2017-05-27T03:21:27.156Z,78.30
2017-05-27T03:23:55.582Z,78.10
2017-05-27T03:26:23.974Z,77.60
2017-05-27T03:28:52.404Z,77.80
2017-05-27T03:31:21.055Z,78.20
2017-05-27T03:33:49.417Z,78.20
2017-05-27T03:36:17.774Z,77.80
2017-05-27T03:38:46.161Z,78.10
2017-05-27T03:41:14.546Z,77.70
2017-05-27T03:43:42.922Z,77.10
2017-05-27T03:46:11.291Z,78.10
2017-05-27T03:48:39.664Z,77.90
2017-05-27T03:51:07.286Z,77.80
2017-05-27T03:53:34.875Z,78.20
2017-05-27T03:56:03.288Z,77.20
2017-05-27T03:58:31.741Z,77.30
2017-05-27T04:01:00.143Z,76.80
2017-05-27T04:03:28.574Z,76.50
2017-05-27T04:05:56.971Z,73.00
2017-05-27T04:08:25.373Z,67.80
2017-05-27T04:10:53.782Z,62.80
2017-05-27T04:13:22.192Z,58.10
2017-05-27T04:15:50.583Z,55.20
2017-05-27T04:18:18.992Z,52.70
2017-05-27T04:20:47.383Z,50.50
2017-05-27T04:23:15.780Z,48.60
2017-05-27T04:25:44.239Z,45.90
2017-05-27T04:28:12.598Z,44.10
2017-05-27T04:30:41.000Z,42.50
2017-05-27T04:33:09.417Z,41.20
2017-05-27T04:35:37.806Z,39.80
2017-05-27T04:38:06.152Z,38.60
2017-05-27T04:40:34.539Z,37.90
2017-05-27T04:43:02.894Z,36.50
2017-05-27T04:45:31.279Z,36.40
2017-05-27T04:47:59.676Z,36.70
2017-05-27T04:50:28.048Z,36.50
2017-05-27T04:52:56.482Z,35.30
2017-05-27T04:55:24.918Z,33.40
2017-05-27T04:57:53.276Z,32.40
2017-05-27T05:00:21.630Z,31.20
2017-05-27T05:02:50.028Z,30.40
2017-05-27T05:05:18.446Z,30.50
2017-05-27T05:07:46.837Z,30.30
2017-05-27T05:10:15.307Z,31.00
2017-05-27T05:12:43.682Z,29.50
2017-05-27T05:15:12.071Z,29.30
2017-05-27T05:17:40.431Z,28.50
2017-05-27T05:20:08.780Z,28.00
2017-05-27T05:22:37.140Z,28.70
2017-05-27T05:25:06.263Z,27.20
2017-05-27T05:27:34.629Z,26.70
2017-05-27T05:30:03.000Z,26.40
2017-05-27T05:32:31.358Z,27.10
2017-05-27T05:34:59.718Z,27.70
2017-05-27T05:37:28.104Z,27.50
2017-05-27T05:39:56.488Z,27.90
2017-05-27T05:42:24.835Z,26.60
2017-05-27T05:44:54.203Z,26.20
2017-05-27T05:47:22.619Z,26.40
2017-05-27T05:49:51.063Z,26.30
2017-05-27T05:52:19.402Z,27.50
2017-05-27T05:54:47.795Z,26.30
2017-05-27T05:57:16.173Z,26.40
2017-05-27T05:59:44.640Z,26.40
2017-05-27T06:02:13.117Z,26.60
2017-05-27T06:04:41.562Z,27.40
2017-05-27T06:07:10.079Z,28.70
2017-05-27T06:09:38.101Z,28.70
2017-05-27T06:12:09.224Z,29.60
2017-05-27T06:14:37.842Z,28.20
2017-05-27T06:17:06.289Z,27.50
2017-05-27T06:19:34.711Z,27.00
2017-05-27T06:22:03.162Z,26.90
2017-05-27T06:24:31.621Z,27.20
2017-05-27T06:27:00.107Z,26.10
2017-05-27T06:29:28.540Z,26.60
2017-05-27T06:31:56.949Z,26.60
2017-05-27T06:34:25.534Z,26.00
2017-05-27T06:36:55.165Z,25.50
2017-05-27T06:39:23.584Z,26.60
2017-05-27T06:41:52.116Z,24.80
2017-05-27T06:44:20.574Z,25.60
2017-05-27T06:46:49.003Z,24.80
2017-05-27T06:49:17.458Z,24.10
2017-05-27T06:51:45.935Z,25.30
2017-05-27T06:54:14.344Z,25.90
2017-05-27T06:56:42.807Z,23.70
2017-05-27T06:59:11.257Z,23.50
2017-05-27T07:01:39.983Z,23.80
2017-05-27T07:04:08.439Z,23.70
2017-05-27T07:06:36.846Z,23.90
2017-05-27T07:09:05.313Z,24.00
2017-05-27T07:11:33.679Z,24.20
2017-05-27T07:14:02.097Z,25.40
2017-05-27T07:16:30.556Z,24.50
2017-05-27T07:18:58.230Z,24.40
2017-05-27T07:21:26.698Z,24.40
2017-05-27T07:23:55.163Z,23.00
2017-05-27T07:26:23.613Z,22.50
2017-05-27T07:31:29.171Z,22.80
2017-05-27T07:33:57.659Z,22.80
2017-05-27T07:36:26.143Z,22.90
2017-05-27T07:38:54.665Z,22.50
2017-05-27T07:41:23.125Z,22.50
2017-05-27T07:43:51.607Z,22.30
2017-05-27T07:46:20.066Z,22.20
2017-05-27T07:48:48.576Z,22.40
2017-05-27T07:51:17.040Z,21.70
2017-05-27T07:53:45.463Z,22.50
2017-05-27T07:56:13.918Z,21.00
2017-05-27T07:58:41.573Z,21.00
2017-05-27T08:01:09.220Z,21.90
2017-05-27T08:03:36.923Z,22.70
2017-05-27T08:06:05.352Z,21.00
2017-05-27T08:08:35.292Z,20.40
2017-05-27T08:11:03.762Z,22.00
2017-05-27T08:13:36.948Z,21.40
2017-05-27T08:16:06.188Z,21.50
2017-05-27T08:18:34.669Z,21.30
2017-05-27T08:21:04.599Z,21.00
2017-05-27T08:23:33.089Z,21.50
2017-05-27T08:26:01.659Z,20.60
2017-05-27T08:28:30.195Z,20.20
2017-05-27T08:30:59.784Z,20.20
2017-05-27T08:43:08.224Z,21.60
2017-05-27T08:45:36.715Z,20.90
2017-05-27T08:48:05.156Z,20.80
2017-05-27T08:50:33.783Z,21.60
2017-05-27T08:53:02.381Z,20.40
2017-05-27T08:55:30.880Z,19.90
2017-05-27T08:58:04.507Z,18.80
2017-05-27T09:00:33.074Z,18.70
2017-05-27T09:03:01.546Z,19.70
2017-05-27T09:05:30.053Z,19.20
2017-05-27T09:07:58.506Z,20.10
2017-05-27T09:10:26.195Z,20.00
2017-05-27T09:12:54.916Z,19.60
2017-05-27T09:15:23.427Z,20.20
2017-05-27T09:17:51.900Z,20.60
2017-05-27T09:20:19.626Z,20.60
2017-05-27T09:22:48.095Z,21.00
2017-05-27T09:25:16.537Z,19.80
2017-05-27T09:27:44.931Z,19.90
2017-05-27T09:30:13.351Z,20.80
2017-05-27T09:32:41.935Z,20.40
2017-05-27T09:35:10.334Z,21.10
2017-05-27T09:37:38.813Z,21.50
2017-05-27T09:40:06.463Z,21.50
2017-05-27T09:42:34.899Z,20.70
2017-05-27T09:45:03.326Z,21.00
2017-05-27T09:47:31.801Z,21.50
2017-05-27T09:50:00.261Z,20.40
2017-05-27T09:52:28.627Z,21.30
2017-05-27T09:54:56.991Z,20.40
2017-05-27T09:57:25.428Z,20.90
2017-05-27T09:59:53.812Z,21.20
2017-05-27T10:02:22.386Z,21.90
2017-05-27T10:04:50.016Z,21.90
2017-05-27T10:07:18.400Z,21.50
2017-05-27T10:09:46.838Z,21.40
2017-05-27T10:12:15.295Z,21.10
2017-05-27T10:14:43.671Z,21.50
2017-05-27T10:17:12.188Z,22.30
2017-05-27T10:19:40.663Z,21.00
2017-05-27T10:22:09.128Z,20.80
2017-05-27T10:24:37.526Z,20.60
2017-05-27T10:27:05.977Z,21.10
2017-05-27T10:29:34.446Z,21.30
2017-05-27T10:32:03.037Z,21.40
2017-05-27T10:34:31.508Z,22.10
2017-05-27T10:36:59.950Z,22.60
2017-05-27T10:39:29.352Z,23.10
2017-05-27T10:41:57.835Z,21.80
2017-05-27T10:44:26.443Z,22.10
2017-05-27T10:46:54.852Z,21.40
2017-05-27T10:49:23.626Z,22.60
2017-05-27T10:51:52.172Z,23.10
2017-05-27T10:54:20.616Z,22.80
2017-05-27T10:56:49.053Z,22.50
2017-05-27T10:59:17.485Z,22.70
2017-05-27T11:01:45.844Z,23.30
2017-05-27T11:04:14.225Z,23.60
2017-05-27T11:06:42.763Z,24.70
2017-05-27T11:09:11.328Z,23.70
2017-05-27T11:11:39.783Z,23.70
2017-05-27T11:14:08.640Z,24.00
2017-05-27T11:16:36.992Z,23.90
2017-05-27T11:19:05.408Z,24.20
2017-05-27T11:21:33.611Z,24.20
2017-05-27T11:24:02.071Z,25.20
2017-05-27T11:26:30.446Z,25.30
2017-05-27T11:28:58.833Z,23.60
2017-05-27T11:31:27.269Z,24.80
2017-05-27T11:33:55.778Z,25.90
2017-05-27T11:36:24.264Z,26.50
2017-05-27T11:38:51.991Z,25.90
2017-05-27T11:41:19.739Z,24.20
2017-05-27T11:43:48.176Z,24.20
2017-05-27T11:46:16.655Z,24.40
2017-05-27T11:48:46.777Z,24.50
2017-05-27T11:51:15.207Z,25.20
2017-05-27T11:53:42.840Z,25.10
2017-05-27T11:56:11.300Z,25.40
2017-05-27T11:58:39.751Z,25.00
2017-05-27T12:01:08.328Z,24.90
2017-05-27T12:03:36.057Z,24.90
2017-05-27T12:06:04.533Z,25.40
2017-05-27T12:08:32.981Z,24.40
2017-05-27T12:11:01.471Z,24.50
2017-05-27T12:13:29.899Z,24.60
2017-05-27T12:15:58.377Z,25.50
2017-05-27T12:18:26.775Z,25.70
2017-05-27T12:20:54.468Z,25.70
2017-05-27T12:23:22.909Z,24.80
2017-05-27T12:25:51.335Z,25.50
2017-05-27T12:28:19.747Z,26.10
2017-05-27T12:30:48.148Z,25.00
2017-05-27T12:33:16.522Z,25.20
2017-05-27T12:35:44.915Z,23.80
2017-05-27T12:38:13.310Z,25.10
2017-05-27T12:40:41.686Z,24.20
2017-05-27T12:43:10.164Z,24.20
2017-05-27T12:45:38.575Z,24.00
2017-05-27T12:48:06.968Z,23.70
2017-05-27T12:50:35.478Z,25.30
2017-05-27T12:53:03.896Z,23.90
2017-05-27T12:55:32.362Z,24.90
2017-05-27T12:58:00.701Z,24.80
2017-05-27T13:00:29.293Z,25.60
2017-05-27T13:02:57.027Z,25.70
2017-05-27T13:05:25.563Z,24.70
2017-05-27T13:07:53.954Z,24.10
2017-05-27T13:10:22.480Z,24.90
2017-05-27T13:12:51.052Z,23.90
2017-05-27T13:15:19.479Z,26.00
2017-05-27T13:17:47.866Z,24.90
2017-05-27T13:20:16.259Z,24.90
2017-05-27T13:22:44.635Z,27.50
2017-05-27T13:25:13.005Z,25.20
2017-05-27T13:27:41.499Z,24.00
2017-05-27T13:30:09.862Z,24.20
2017-05-27T13:32:38.224Z,24.40
2017-05-27T13:35:06.741Z,26.30
2017-05-27T13:37:35.192Z,24.50
2017-05-27T13:40:03.663Z,24.10
2017-05-27T13:42:32.110Z,24.30
2017-05-27T13:45:02.820Z,28.20
2017-05-27T13:47:31.366Z,24.80
2017-05-27T13:49:59.899Z,26.90
2017-05-27T13:52:28.318Z,26.30
2017-05-27T13:54:57.343Z,25.80
2017-05-27T13:57:25.763Z,25.40
2017-05-27T13:59:54.135Z,23.90
2017-05-27T14:02:22.540Z,25.10
2017-05-27T14:04:50.963Z,23.90
2017-05-27T14:07:19.392Z,26.80
2017-05-27T14:09:47.990Z,24.20
2017-05-27T14:12:16.358Z,25.50
2017-05-27T14:14:44.887Z,25.50
2017-05-27T14:17:13.287Z,25.30
2017-05-27T14:19:41.684Z,24.40
2017-05-27T14:22:10.194Z,24.20
2017-05-27T14:24:39.573Z,24.10
2017-05-27T14:27:08.308Z,24.60
2017-05-27T14:29:45.967Z,25.30
2017-05-27T14:32:14.410Z,25.70
2017-05-27T14:34:44.090Z,26.90
2017-05-27T14:37:12.504Z,25.60
2017-05-27T14:39:40.951Z,25.80
2017-05-27T14:42:09.373Z,25.20
2017-05-27T14:44:37.780Z,25.50
2017-05-27T14:47:06.286Z,25.60
2017-05-27T14:49:35.040Z,25.90
2017-05-27T14:52:02.669Z,25.90
2017-05-27T14:54:31.572Z,26.10
2017-05-27T14:57:00.091Z,25.60
2017-05-27T14:59:28.961Z,25.60
2017-05-27T15:01:57.406Z,27.30
2017-05-27T15:04:26.167Z,26.40
2017-05-27T15:06:54.791Z,25.20
2017-05-27T15:09:23.159Z,25.60
2017-05-27T15:11:51.801Z,25.60
2017-05-27T15:14:20.224Z,25.60
2017-05-27T15:16:48.656Z,25.70
2017-05-27T15:19:17.052Z,25.40
2017-05-27T15:21:45.496Z,25.70
2017-05-27T15:24:13.888Z,26.50
2017-05-27T15:26:42.328Z,26.80
2017-05-27T15:29:10.807Z,26.80
2017-05-27T15:31:39.436Z,27.70
2017-05-27T15:34:07.815Z,27.60
2017-05-27T15:36:36.182Z,28.20
2017-05-27T15:39:04.624Z,28.10
2017-05-27T15:41:32.975Z,27.70
2017-05-27T15:44:01.380Z,27.90
2017-05-27T15:46:29.750Z,27.20
2017-05-27T15:48:58.110Z,27.00
2017-05-27T15:51:26.486Z,27.20
2017-05-27T15:53:55.059Z,27.10
2017-05-27T15:56:23.423Z,27.70
2017-05-27T15:58:52.014Z,28.20
2017-05-27T16:01:20.376Z,28.10
2017-05-27T16:03:49.358Z,28.40
2017-05-27T16:06:17.749Z,28.50
2017-05-27T16:08:46.148Z,28.50
2017-05-27T16:11:14.523Z,28.30
2017-05-27T16:13:42.887Z,28.60
2017-05-27T16:16:11.250Z,28.60
2017-05-27T16:18:40.101Z,28.80
2017-05-27T16:21:08.467Z,28.70
2017-05-27T16:23:37.723Z,28.20
2017-05-27T16:26:06.091Z,28.50
2017-05-27T16:28:34.605Z,28.60
2017-05-27T16:31:02.983Z,27.90
2017-05-27T16:33:31.368Z,28.60
2017-05-27T16:35:59.761Z,28.70
2017-05-27T16:38:28.159Z,28.50
2017-05-27T16:40:56.596Z,28.60
2017-05-27T16:43:25.041Z,28.00
2017-05-27T16:45:53.449Z,28.30
2017-05-27T16:48:21.917Z,28.30
2017-05-27T16:50:50.305Z,29.00
2017-05-27T16:53:18.666Z,28.40
2017-05-27T16:55:47.067Z,28.40
2017-05-27T16:58:15.447Z,29.50
2017-05-27T17:00:43.087Z,29.40
2017-05-27T17:03:11.455Z,28.50
2017-05-27T17:05:39.855Z,28.70
2017-05-27T17:08:08.303Z,29.30
2017-05-27T17:10:36.689Z,29.60
2017-05-27T17:13:05.111Z,29.00
2017-05-27T17:15:33.584Z,29.20
2017-05-27T17:18:02.043Z,29.60
2017-05-27T17:20:30.550Z,29.50
2017-05-27T17:22:58.987Z,30.00
2017-05-27T17:25:27.362Z,29.80
2017-05-27T17:27:55.757Z,29.90
2017-05-27T17:30:24.163Z,29.90
2017-05-27T17:32:52.515Z,30.30
2017-05-27T17:35:20.866Z,30.90
2017-05-27T17:37:49.273Z,30.70
2017-05-27T17:40:17.667Z,30.40
2017-05-27T17:42:46.050Z,30.50
2017-05-27T17:45:14.407Z,30.40
2017-05-27T17:47:42.738Z,30.10
2017-05-27T17:50:11.145Z,29.60
2017-05-27T17:52:39.587Z,29.80
2017-05-27T17:55:07.992Z,29.80
2017-05-27T17:57:36.448Z,29.90
2017-05-27T18:00:04.827Z,29.90
2017-05-27T18:02:33.194Z,29.80
2017-05-27T18:05:01.635Z,30.70
2017-05-27T18:07:30.010Z,31.50
2017-05-27T18:09:58.509Z,32.40
2017-05-27T18:12:26.155Z,32.30
2017-05-27T18:14:54.556Z,32.60
2017-05-27T18:17:22.919Z,33.30
2017-05-27T18:19:50.544Z,33.20
2017-05-27T18:22:18.913Z,33.70
2017-05-27T18:24:46.525Z,33.70
2017-05-27T18:27:14.955Z,34.80
2017-05-27T18:29:43.312Z,34.30
2017-05-27T18:32:11.689Z,35.40
2017-05-27T18:34:40.265Z,34.50
2017-05-27T18:37:08.679Z,35.40
2017-05-27T18:39:37.311Z,35.20
2017-05-27T18:42:05.717Z,35.60
2017-05-27T18:44:34.127Z,35.50
2017-05-27T18:47:02.533Z,35.60
2017-05-27T18:49:30.896Z,35.50
2017-05-27T18:51:59.250Z,35.50
2017-05-27T18:54:27.641Z,35.60
2017-05-27T18:56:56.135Z,35.80
2017-05-27T18:59:24.522Z,35.70
2017-05-27T19:01:52.897Z,36.00
2017-05-27T19:04:21.252Z,36.20
2017-05-27T19:06:49.654Z,36.60
2017-05-27T19:09:18.026Z,36.40
2017-05-27T19:11:46.453Z,36.80
2017-05-27T19:14:14.801Z,36.90
2017-05-27T19:16:43.208Z,37.00
2017-05-27T19:19:11.581Z,37.10
2017-05-27T19:21:39.955Z,37.40
2017-05-27T19:24:08.338Z,37.50
2017-05-27T19:26:36.693Z,38.10
2017-05-27T19:29:05.035Z,38.50
2017-05-27T19:31:33.440Z,38.90
2017-05-27T19:34:02.987Z,38.70
2017-05-27T19:36:31.359Z,39.20
2017-05-27T19:38:59.726Z,39.30
2017-05-27T19:41:28.139Z,40.20
2017-05-27T19:43:56.568Z,40.30
2017-05-27T19:46:24.967Z,40.20
2017-05-27T19:48:53.362Z,40.30
2017-05-27T19:51:21.748Z,40.90
2017-05-27T19:53:50.135Z,41.00
2017-05-27T19:56:18.485Z,40.60
2017-05-27T19:58:46.842Z,41.50
2017-05-27T20:01:15.247Z,42.10
2017-05-27T20:03:43.621Z,42.80
2017-05-27T20:06:12.009Z,42.50
2017-05-27T20:08:40.410Z,42.40
2017-05-27T20:11:08.870Z,42.80
2017-05-27T20:13:37.237Z,42.50
2017-05-27T20:16:05.678Z,42.50
2017-05-27T20:18:34.097Z,42.50
2017-05-27T20:21:02.500Z,42.60
2017-05-27T20:23:30.958Z,42.20
2017-05-27T20:25:59.371Z,42.50
2017-05-27T20:28:27.811Z,42.90
2017-05-27T20:30:56.309Z,42.70
2017-05-27T20:33:24.709Z,41.90
2017-05-27T20:35:53.131Z,42.30
2017-05-27T20:38:21.612Z,42.50
2017-05-27T20:40:49.944Z,42.50
2017-05-27T20:43:18.366Z,42.40
2017-05-27T20:45:47.248Z,42.40
2017-05-27T20:48:15.674Z,42.10
2017-05-27T20:50:44.106Z,42.50
2017-05-27T20:53:12.469Z,42.20
2017-05-27T20:55:40.893Z,42.80
2017-05-27T20:58:09.256Z,42.40
2017-05-27T21:00:37.612Z,42.50
2017-05-27T21:03:06.039Z,42.60
2017-05-27T21:05:34.417Z,42.60
2017-05-27T21:08:02.867Z,42.70
2017-05-27T21:10:31.239Z,42.80
2017-05-27T21:12:59.619Z,43.00
2017-05-27T21:15:27.974Z,42.80
2017-05-27T21:17:56.411Z,43.10
2017-05-27T21:20:24.825Z,43.20
2017-05-27T21:22:53.250Z,43.20
2017-05-27T21:25:20.915Z,43.10
2017-05-27T21:27:49.334Z,43.30
2017-05-27T21:30:16.976Z,43.30
2017-05-27T21:32:44.645Z,43.50
2017-05-27T21:35:13.014Z,43.70
2017-05-27T21:37:41.462Z,43.70
2017-05-27T21:40:09.852Z,43.80
2017-05-27T21:42:38.233Z,43.90
2017-05-27T21:45:06.681Z,44.30
2017-05-27T21:47:35.072Z,44.10
2017-05-27T21:50:03.461Z,44.20
2017-05-27T21:52:31.871Z,44.40
2017-05-27T21:55:00.252Z,44.40
2017-05-27T21:57:28.679Z,44.30
2017-05-27T21:59:56.364Z,44.90
2017-05-27T22:02:24.784Z,44.50
2017-05-27T22:04:53.176Z,44.40
2017-05-27T22:07:21.610Z,44.50
2017-05-27T22:09:50.002Z,44.40
2017-05-27T22:12:18.400Z,44.90
2017-05-27T22:14:46.816Z,44.60
2017-05-27T22:17:15.210Z,44.80
2017-05-27T22:19:43.628Z,44.80
2017-05-27T22:22:12.071Z,44.90
2017-05-27T22:24:39.708Z,44.90
2017-05-27T22:27:08.104Z,44.80
2017-05-27T22:29:36.534Z,45.60
2017-05-27T22:32:04.940Z,45.10
2017-05-27T22:34:33.351Z,45.00
2017-05-27T22:37:01.744Z,45.70
2017-05-27T22:39:30.155Z,45.10
2017-05-27T22:41:58.549Z,45.10
2017-05-27T22:44:26.937Z,45.30
2017-05-27T22:46:55.370Z,45.30
2017-05-27T22:49:23.757Z,45.50
2017-05-27T22:51:52.147Z,45.60
2017-05-27T22:54:19.792Z,45.60
2017-05-27T22:56:48.217Z,45.50
2017-05-27T22:59:15.868Z,45.40
2017-05-27T23:01:44.306Z,45.60
2017-05-27T23:04:12.719Z,45.70
2017-05-27T23:06:41.109Z,45.60
2017-05-27T23:09:08.831Z,45.60
2017-05-27T23:11:37.233Z,45.70
2017-05-27T23:14:05.648Z,45.80
2017-05-27T23:16:34.094Z,45.80
2017-05-27T23:19:02.512Z,45.90
2017-05-27T23:21:30.136Z,45.80
2017-05-27T23:23:58.583Z,46.00
2017-05-27T23:26:26.989Z,46.00
2017-05-27T23:28:55.404Z,46.20
2017-05-27T23:31:23.826Z,46.00
2017-05-27T23:33:51.435Z,46.00
2017-05-27T23:36:20.224Z,46.20
2017-05-27T23:38:48.472Z,46.20
2017-05-27T23:41:16.976Z,46.20
2017-05-27T23:43:45.388Z,46.30
2017-05-27T23:46:13.824Z,46.30
2017-05-27T23:48:42.242Z,46.20
2017-05-27T23:51:10.645Z,46.10
2017-05-27T23:53:39.057Z,46.30
2017-05-27T23:56:07.448Z,46.10
2017-05-27T23:58:35.846Z,46.20
